Baker City, OR

4:33 AM PDT on September 02, 2014 (GMT -0700)
Baker City Municipal | Change Station
CLOSE
Current Station
Airport
Location: Baker,
Elevation: 3373 ft
Nearby Weather Stations

Elev 3373 ft 44.84 °N, 117.81 °W | Updated 40 minutes ago

Clear
Clear
39 °F
Feels Like 37 °F
N
4
Wind Variable Wind from North

Today
High -- | Low -- °F
--% Chance of Precip.
Yesterday
High -- | Low -- °F
Precip. -- in
6:14 AM 7:26 PM
Waxing Crescent, 50% visible
Pressure 29.97 in
Visibility 10.0 miles
Clouds Clear
Windchill 37 °F
Dew Point 37 °F
Humidity 93%
Rainfall 0.00 in
Snow Depth 1 in
UV 0 out of 12
Pollen 5.80 out of 12
Air Quality Not available.
Flu Activity Not available.
METAR KBKE 021053Z AUTO 36003KT 10SM CLR 04/03 A2999 RMK AO2 SLP148 T00390028 TSNO $

More Conditions Fewer Conditions

Pressure 29.97 in
Visibility 10.0 miles
Clouds Clear
Windchill 37 °F
Dew Point 37 °F
Humidity 93%
Rainfall 0.00 in
Snow Depth 1 in
UV 0 out of 12
Pollen 5.80 out of 12
Air Quality Not available.
Flu Activity Not available.
METAR KBKE 021053Z AUTO 36003KT 10SM CLR 04/03 A2999 RMK AO2 SLP148 T00390028 TSNO $

More Conditions Fewer Conditions

10-Day Weather Forecast

Almanac

Astronomy

Sep. 02, 2014 Rise Set
Actual Time 6:14 AM PDT 7:26 PM PDT
Civil Twilight 5:44 AM PDT 7:56 PM PDT
Nautical Twilight 5:08 AM PDT 8:32 PM PDT
Astronomical Twilight 4:30 AM PDT 9:10 PM PDT
Moon 2:21 PM PDT No Moon Set
Length of Visible Light 14h 11m
Length of Day
13h 11m
Tomorrow will be 3m 1s shorter.
Waxing Crescent, 50% of the Moon is Illuminated
Today
Waxing Crescent
Sep 8
Full
Sep 15
Last Quarter
Sep 24
New
Oct 1
First Quarter

Today's Extremes

State Highs State Lows

Community

WunderPhotos

Upload Photos

1,749,621 photos uploaded!

WunderBlogs® & News

By Dr. Jeff Masters
Director of Meteorology, Weather Underground
By Kari Strenfel
Meteorologist, Weather Underground
By Christopher C. Burt
Weather Historian, Weather Underground
September 2, 2014
September 2, 2014
September 2, 2014

Nearby

Snow Depth

Station Depth Elevation
Bourne 1 in 5800 ft
Wolf Creek 0 in 5700 ft
Gold Center 0 in 5340 ft
Tipton 0 in 5150 ft
Schneider Meadows 0 in 5400 ft

Earthquake Activity

City Distance Mag. Time & Date
No recent earthquake activity has been reported nearby.
Minimum magnitude displayed is 2.5.

Coastal Water Temperatures

Place Temperature
No Stations Reporting

Nearby Weather Stations